This is the latest recevied weather packets stored in our database for station/object S50APT-10. If no packets are shown the sender has not sent any weather packets the latest 10 day(s).
| Time | Temp. | Humidity | Pressure | Rain* | Wind** | Luminosity | Snow |
|---|---|---|---|---|---|---|---|
| 1777678069 | 8.89° C | 59% | 1027.8 hPa | - | - | - | - |
| 1777677167 | 8.89° C | 60% | 1027.9 hPa | - | - | - | - |
| 1777676266 | 9.44° C | 58% | 1028 hPa | - | - | - | - |
| 1777675366 | 9.44° C | 58% | 1028 hPa | - | - | - | - |
| 1777674466 | 9.44° C | 58% | 1028.1 hPa | - | - | - | - |
| 1777673564 | 10.56° C | 52% | 1028.2 hPa | - | - | - | - |
| 1777672661 | 11.11° C | 50% | 1028.2 hPa | - | - | - | - |
| 1777671761 | 11.67° C | 48% | 1028.1 hPa | - | - | - | - |
| 1777670860 | 11.67° C | 47% | 1028.1 hPa | - | - | - | - |
| 1777669959 | 11.67° C | 47% | 1028.1 hPa | - | - | - | - |
| 1777669059 | 12.22° C | 46% | 1028.3 hPa | - | - | - | - |
| 1777668158 | 12.22° C | 46% | 1028.2 hPa | - | - | - | - |
| 1777667257 | 12.22° C | 45% | 1028.2 hPa | - | - | - | - |
| 1777666356 | 13.89° C | 41% | 1028.1 hPa | - | - | - | - |
| 1777665456 | 13.33° C | 42% | 1028.1 hPa | - | - | - | - |
| 1777664556 | 13.33° C | 41% | 1028.1 hPa | - | - | - | - |
| 1777663655 | 13.33° C | 42% | 1028 hPa | - | - | - | - |
| 1777662754 | 13.33° C | 42% | 1028 hPa | - | - | - | - |
| 1777661854 | 13.89° C | 42% | 1028 hPa | - | - | - | - |
| 1777660954 | 13.89° C | 42% | 1027.9 hPa | - | - | - | - |
| 1777660053 | 13.89° C | 41% | 1027.8 hPa | - | - | - | - |
| 1777659152 | 13.89° C | 42% | 1027.6 hPa | - | - | - | - |
| 1777658252 | 14.44° C | 40% | 1027.6 hPa | - | - | - | - |
| 1777657347 | 15° C | 39% | 1027.4 hPa | - | - | - | - |
| 1777656446 | 16.11° C | 37% | 1027.3 hPa | - | - | - | - |
* Rain since midnight (hover to see other rain measurements)
** Current wind speed in m/s (hover to see current wind gust speed)